sensor_id;sensor_type;location;lat;lon;timestamp;pressure;altitude;pressure_sealevel;temperature;humidity
7832;BME280;3961;42.058;25.586;2023-04-15T00:00:10;63703.09;;;13.17;100.00
7832;BME280;3961;42.058;25.586;2023-04-15T00:02:36;63727.44;;;13.38;100.00
7832;BME280;3961;42.058;25.586;2023-04-15T00:05:03;63731.72;;;13.44;100.00
7832;BME280;3961;42.058;25.586;2023-04-15T00:07:29;63674.94;;;12.94;100.00
7832;BME280;3961;42.058;25.586;2023-04-15T00:09:56;63664.88;;;12.83;100.00
7832;BME280;3961;42.058;25.586;2023-04-15T00:12:26;63682.69;;;13.03;100.00
7832;BME280;3961;42.058;25.586;2023-04-15T00:14:52;63694.03;;;13.11;100.00
7832;BME280;3961;42.058;25.586;2023-04-15T00:17:17;63716.78;;;13.26;100.00
7832;BME280;3961;42.058;25.586;2023-04-15T00:19:43;63692.88;;;13.10;100.00
7832;BME280;3961;42.058;25.586;2023-04-15T00:22:12;63668.91;;;12.87;100.00
7832;BME280;3961;42.058;25.586;2023-04-15T00:24:38;63653.84;;;12.73;100.00
7832;BME280;3961;42.058;25.586;2023-04-15T00:27:04;63649.22;;;12.69;100.00
7832;BME280;3961;42.058;25.586;2023-04-15T00:29:30;63654.19;;;12.71;100.00
7832;BME280;3961;42.058;25.586;2023-04-15T00:31:55;63655.59;;;12.75;100.00
7832;BME280;3961;42.058;25.586;2023-04-15T00:34:24;63691.25;;;13.04;100.00
7832;BME280;3961;42.058;25.586;2023-04-15T00:36:50;63693.00;;;13.05;100.00
7832;BME280;3961;42.058;25.586;2023-04-15T00:39:16;63695.91;;;13.08;100.00
7832;BME280;3961;42.058;25.586;2023-04-15T00:41:42;63703.09;;;13.17;100.00
7832;BME280;3961;42.058;25.586;2023-04-15T00:44:08;63716.66;;;13.31;100.00
7832;BME280;3961;42.058;25.586;2023-04-15T00:46:35;63704.25;;;13.18;100.00
7832;BME280;3961;42.058;25.586;2023-04-15T00:49:06;63672.97;;;12.90;100.00
7832;BME280;3961;42.058;25.586;2023-04-15T00:51:32;63648.31;;;12.71;100.00
7832;BME280;3961;42.058;25.586;2023-04-15T00:54:01;63593.69;;;12.21;100.00
7832;BME280;3961;42.058;25.586;2023-04-15T00:56:28;63636.50;;;12.58;100.00
7832;BME280;3961;42.058;25.586;2023-04-15T00:58:54;63633.03;;;12.55;100.00
7832;BME280;3961;42.058;25.586;2023-04-15T01:01:23;63641.47;;;12.60;100.00
7832;BME280;3961;42.058;25.586;2023-04-15T01:03:50;63646.13;;;12.64;100.00
7832;BME280;3961;42.058;25.586;2023-04-15T01:06:16;63650.03;;;12.72;100.00
7832;BME280;3961;42.058;25.586;2023-04-15T01:08:42;63651.78;;;12.74;100.00
7832;BME280;3961;42.058;25.586;2023-04-15T01:11:08;63672.63;;;12.92;100.00
7832;BME280;3961;42.058;25.586;2023-04-15T01:13:35;63668.81;;;12.91;100.00
7832;BME280;3961;42.058;25.586;2023-04-15T01:16:01;63694.63;;;13.11;100.00
7832;BME280;3961;42.058;25.586;2023-04-15T01:18:28;63705.50;;;13.14;100.00
7832;BME280;3961;42.058;25.586;2023-04-15T01:20:53;63701.34;;;13.15;100.00
7832;BME280;3961;42.058;25.586;2023-04-15T01:23:20;63687.44;;;13.03;100.00
7832;BME280;3961;42.058;25.586;2023-04-15T01:25:48;63683.63;;;13.02;100.00
7832;BME280;3961;42.058;25.586;2023-04-15T01:28:14;63666.25;;;12.87;100.00
7832;BME280;3961;42.058;25.586;2023-04-15T01:30:40;63675.63;;;12.90;100.00
7832;BME280;3961;42.058;25.586;2023-04-15T01:33:06;63705.19;;;13.16;100.00
7832;BME280;3961;42.058;25.586;2023-04-15T01:35:32;63715.03;;;13.25;100.00
7832;BME280;3961;42.058;25.586;2023-04-15T01:38:04;63709.13;;;13.24;100.00
7832;BME280;3961;42.058;25.586;2023-04-15T01:40:30;63729.41;;;13.42;100.00
7832;BME280;3961;42.058;25.586;2023-04-15T01:42:56;63697.06;;;13.09;100.00
7832;BME280;3961;42.058;25.586;2023-04-15T01:45:21;63708.31;;;13.21;100.00
7832;BME280;3961;42.058;25.586;2023-04-15T01:47:47;63696.81;;;13.06;100.00
7832;BME280;3961;42.058;25.586;2023-04-15T01:50:13;63695.78;;;13.12;100.00
7832;BME280;3961;42.058;25.586;2023-04-15T01:52:39;63707.41;;;13.23;100.00
7832;BME280;3961;42.058;25.586;2023-04-15T01:55:06;63697.53;;;13.14;100.00
7832;BME280;3961;42.058;25.586;2023-04-15T01:57:32;63699.03;;;13.13;100.00
7832;BME280;3961;42.058;25.586;2023-04-15T01:59:58;63698.44;;;13.12;100.00
7832;BME280;3961;42.058;25.586;2023-04-15T02:02:23;63703.91;;;13.20;100.00
7832;BME280;3961;42.058;25.586;2023-04-15T02:04:49;63706.69;;;13.15;100.00
7832;BME280;3961;42.058;25.586;2023-04-15T02:07:14;63727.78;;;13.36;100.00
7832;BME280;3961;42.058;25.586;2023-04-15T02:09:40;63715.28;;;13.27;100.00
7832;BME280;3961;42.058;25.586;2023-04-15T02:12:05;63619.94;;;12.46;100.00
7832;BME280;3961;42.058;25.586;2023-04-15T02:14:31;63650.97;;;12.71;100.00
7832;BME280;3961;42.058;25.586;2023-04-15T02:16:56;63620.28;;;12.44;100.00
7832;BME280;3961;42.058;25.586;2023-04-15T02:19:22;63625.25;;;12.46;100.00
7832;BME280;3961;42.058;25.586;2023-04-15T02:21:47;63597.16;;;12.24;100.00
7832;BME280;3961;42.058;25.586;2023-04-15T02:24:13;63621.44;;;12.45;100.00
7832;BME280;3961;42.058;25.586;2023-04-15T02:26:38;63593.69;;;12.21;100.00
7832;BME280;3961;42.058;25.586;2023-04-15T02:29:04;63610.22;;;12.33;100.00
7832;BME280;3961;42.058;25.586;2023-04-15T02:31:29;63580.47;;;12.04;100.00
7832;BME280;3961;42.058;25.586;2023-04-15T02:33:58;63594.59;;;12.19;100.00
7832;BME280;3961;42.058;25.586;2023-04-15T02:36:24;63629.78;;;12.55;100.00
7832;BME280;3961;42.058;25.586;2023-04-15T02:38:51;63649.22;;;12.69;100.00
7832;BME280;3961;42.058;25.586;2023-04-15T02:41:16;63653.03;;;12.70;100.00
7832;BME280;3961;42.058;25.586;2023-04-15T02:43:42;63640.91;;;12.60;100.00
7832;BME280;3961;42.058;25.586;2023-04-15T02:46:08;63580.94;;;12.09;100.00
7832;BME280;3961;42.058;25.586;2023-04-15T02:48:37;63552.84;;;11.87;100.00
7832;BME280;3961;42.058;25.586;2023-04-15T02:51:16;63572.03;;;11.99;100.00
7832;BME280;3961;42.058;25.586;2023-04-15T02:53:47;63606.75;;;12.30;100.00
7832;BME280;3961;42.058;25.586;2023-04-15T02:56:13;63624.91;;;12.48;100.00
7832;BME280;3961;42.058;25.586;2023-04-15T02:58:39;63650.38;;;12.70;100.00
7832;BME280;3961;42.058;25.586;2023-04-15T03:01:05;63648.66;;;12.69;100.00
7832;BME280;3961;42.058;25.586;2023-04-15T03:03:33;63669.84;;;12.85;100.00
7832;BME280;3961;42.058;25.586;2023-04-15T03:05:58;63670.09;;;12.88;100.00
7832;BME280;3961;42.058;25.586;2023-04-15T03:08:24;63636.84;;;12.56;100.00
7832;BME280;3961;42.058;25.586;2023-04-15T03:10:50;63619.13;;;12.43;100.00
7832;BME280;3961;42.058;25.586;2023-04-15T03:13:17;63648.44;;;12.66;100.00
7832;BME280;3961;42.058;25.586;2023-04-15T03:15:45;63638.00;;;12.57;100.00
7832;BME280;3961;42.058;25.586;2023-04-15T03:18:11;63675.28;;;12.92;100.00
7832;BME280;3961;42.058;25.586;2023-04-15T03:20:36;63666.94;;;12.83;100.00
7832;BME280;3961;42.058;25.586;2023-04-15T03:23:02;63646.56;;;12.69;100.00
7832;BME280;3961;42.058;25.586;2023-04-15T03:25:27;63672.41;;;12.90;100.00
7832;BME280;3961;42.058;25.586;2023-04-15T03:27:53;63670.66;;;12.88;100.00
7832;BME280;3961;42.058;25.586;2023-04-15T03:30:18;63641.94;;;12.65;100.00
7832;BME280;3961;42.058;25.586;2023-04-15T03:32:44;63641.25;;;12.58;100.00
7832;BME280;3961;42.058;25.586;2023-04-15T03:35:09;63660.22;;;12.79;100.00
7832;BME280;3961;42.058;25.586;2023-04-15T03:37:35;63671.25;;;12.89;100.00
7832;BME280;3961;42.058;25.586;2023-04-15T03:40:00;63653.97;;;12.69;100.00
7832;BME280;3961;42.058;25.586;2023-04-15T03:42:26;63627.25;;;12.50;100.00
7832;BME280;3961;42.058;25.586;2023-04-15T03:44:51;63653.50;;;12.75;100.00
7832;BME280;3961;42.058;25.586;2023-04-15T03:47:17;63670.41;;;12.86;100.00
7832;BME280;3961;42.058;25.586;2023-04-15T03:49:42;63662.78;;;12.84;100.00
7832;BME280;3961;42.058;25.586;2023-04-15T03:52:08;63677.03;;;12.94;100.00
7832;BME280;3961;42.058;25.586;2023-04-15T03:54:33;63663.72;;;12.82;100.00
7832;BME280;3961;42.058;25.586;2023-04-15T03:56:59;63638.81;;;12.60;100.00
7832;BME280;3961;42.058;25.586;2023-04-15T03:59:25;63634.19;;;12.56;100.00
7832;BME280;3961;42.058;25.586;2023-04-15T04:01:50;63649.47;;;12.72;100.00
7832;BME280;3961;42.058;25.586;2023-04-15T04:04:16;63669.84;;;12.85;100.00
7832;BME280;3961;42.058;25.586;2023-04-15T04:06:41;63660.47;;;12.82;100.00
7832;BME280;3961;42.058;25.586;2023-04-15T04:09:07;63685.50;;;12.99;100.00
7832;BME280;3961;42.058;25.586;2023-04-15T04:11:32;63690.09;;;13.03;100.00
7832;BME280;3961;42.058;25.586;2023-04-15T04:13:58;63711.00;;;13.21;100.00
7832;BME280;3961;42.058;25.586;2023-04-15T04:16:23;63697.97;;;13.07;100.00
7832;BME280;3961;42.058;25.586;2023-04-15T04:18:49;63712.97;;;13.25;100.00
7832;BME280;3961;42.058;25.586;2023-04-15T04:21:15;63718.75;;;13.30;100.00
7832;BME280;3961;42.058;25.586;2023-04-15T04:23:40;63725.69;;;13.36;100.00
7832;BME280;3961;42.058;25.586;2023-04-15T04:26:06;63722.78;;;13.34;100.00
7832;BME280;3961;42.058;25.586;2023-04-15T04:28:31;63730.22;;;13.45;100.00
7832;BME280;3961;42.058;25.586;2023-04-15T04:30:57;63728.81;;;13.41;100.00
7832;BME280;3961;42.058;25.586;2023-04-15T04:33:22;63741.34;;;13.50;100.00
7832;BME280;3961;42.058;25.586;2023-04-15T04:35:48;63745.97;;;13.54;100.00
7832;BME280;3961;42.058;25.586;2023-04-15T04:38:13;63748.28;;;13.56;100.00
7832;BME280;3961;42.058;25.586;2023-04-15T04:40:39;63743.66;;;13.52;100.00
7832;BME280;3961;42.058;25.586;2023-04-15T04:43:05;63723.38;;;13.34;100.00
7832;BME280;3961;42.058;25.586;2023-04-15T04:45:30;63750.38;;;13.56;100.00
7832;BME280;3961;42.058;25.586;2023-04-15T04:47:56;63759.88;;;13.66;100.00
7832;BME280;3961;42.058;25.586;2023-04-15T04:50:21;63748.88;;;13.57;100.00
7832;BME280;3961;42.058;25.586;2023-04-15T04:52:47;63772.41;;;13.75;100.00
7832;BME280;3961;42.058;25.586;2023-04-15T04:55:12;63770.06;;;13.73;100.00
7832;BME280;3961;42.058;25.586;2023-04-15T04:57:38;63765.66;;;13.71;100.00
7832;BME280;3961;42.058;25.586;2023-04-15T05:00:06;63739.25;;;13.51;100.00
7832;BME280;3961;42.058;25.586;2023-04-15T05:02:33;63732.31;;;13.44;100.00
7832;BME280;3961;42.058;25.586;2023-04-15T05:04:59;63717.59;;;13.29;100.00
7832;BME280;3961;42.058;25.586;2023-04-15T05:07:24;63738.69;;;13.50;100.00
7832;BME280;3961;42.058;25.586;2023-04-15T05:09:50;63748.88;;;13.57;100.00
7832;BME280;3961;42.058;25.586;2023-04-15T05:12:16;63731.13;;;13.43;100.00
7832;BME280;3961;42.058;25.586;2023-04-15T05:14:43;63738.22;;;13.45;100.00
7832;BME280;3961;42.058;25.586;2023-04-15T05:17:09;63725.69;;;13.36;100.00
7832;BME280;3961;42.058;25.586;2023-04-15T05:19:35;63739.25;;;13.51;100.00
7832;BME280;3961;42.058;25.586;2023-04-15T05:22:00;63785.97;;;13.89;100.00
7832;BME280;3961;42.058;25.586;2023-04-15T05:24:26;63819.34;;;14.16;100.00
7832;BME280;3961;42.058;25.586;2023-04-15T05:26:51;63834.66;;;14.32;100.00
7832;BME280;3961;42.058;25.586;2023-04-15T05:29:17;63872.72;;;14.63;100.00
7832;BME280;3961;42.058;25.586;2023-04-15T05:31:42;63898.50;;;14.88;100.00
7832;BME280;3961;42.058;25.586;2023-04-15T05:34:08;63890.16;;;14.78;100.00
7832;BME280;3961;42.058;25.586;2023-04-15T05:36:34;63906.06;;;14.94;100.00
7832;BME280;3961;42.058;25.586;2023-04-15T05:39:00;63896.53;;;14.84;100.00
7832;BME280;3961;42.058;25.586;2023-04-15T05:41:25;63853.25;;;14.48;100.00
7832;BME280;3961;42.058;25.586;2023-04-15T05:43:51;63897.69;;;14.85;100.00
7832;BME280;3961;42.058;25.586;2023-04-15T05:46:16;63872.97;;;14.65;100.00
7832;BME280;3961;42.058;25.586;2023-04-15T05:48:41;63903.72;;;14.92;100.00
7832;BME280;3961;42.058;25.586;2023-04-15T05:51:07;63948.75;;;15.29;100.00
7832;BME280;3961;42.058;25.586;2023-04-15T05:53:32;63958.75;;;15.45;100.00
7832;BME280;3961;42.058;25.586;2023-04-15T05:55:58;63983.25;;;15.62;100.00
7832;BME280;3961;42.058;25.586;2023-04-15T05:58:23;64012.56;;;15.90;100.00
7832;BME280;3961;42.058;25.586;2023-04-15T06:00:49;63993.16;;;15.70;100.00
7832;BME280;3961;42.058;25.586;2023-04-15T06:03:15;64058.22;;;16.27;100.00
7832;BME280;3961;42.058;25.586;2023-04-15T06:05:41;64100.75;;;16.60;100.00
7832;BME280;3961;42.058;25.586;2023-04-15T06:08:06;64100.66;;;16.64;100.00
7832;BME280;3961;42.058;25.586;2023-04-15T06:10:34;64135.31;;;16.92;100.00
7832;BME280;3961;42.058;25.586;2023-04-15T06:13:02;64126.84;;;16.87;100.00
7832;BME280;3961;42.058;25.586;2023-04-15T06:15:28;64057.97;;;16.25;100.00
7832;BME280;3961;42.058;25.586;2023-04-15T06:17:54;64095.41;;;16.60;100.00
7832;BME280;3961;42.058;25.586;2023-04-15T06:20:20;64086.13;;;16.52;100.00
7832;BME280;3961;42.058;25.586;2023-04-15T06:22:45;64087.28;;;16.53;100.00
7832;BME280;3961;42.058;25.586;2023-04-15T06:25:11;64107.06;;;16.70;100.00
7832;BME280;3961;42.058;25.586;2023-04-15T06:27:36;64103.44;;;16.71;100.00
7832;BME280;3961;42.058;25.586;2023-04-15T06:30:02;64150.69;;;17.08;100.00
7832;BME280;3961;42.058;25.586;2023-04-15T06:32:28;64147.19;;;17.05;100.00
7832;BME280;3961;42.058;25.586;2023-04-15T06:34:54;64153.38;;;17.08;100.00
7832;BME280;3961;42.058;25.586;2023-04-15T06:37:19;64183.63;;;17.34;100.00
7832;BME280;3961;42.058;25.586;2023-04-15T06:39:44;64155.34;;;17.12;100.00
7832;BME280;3961;42.058;25.586;2023-04-15T06:42:10;64179.53;;;17.31;100.00
7832;BME280;3961;42.058;25.586;2023-04-15T06:44:36;64183.16;;;17.29;100.00
7832;BME280;3961;42.058;25.586;2023-04-15T06:47:02;64180.81;;;17.27;100.00
7832;BME280;3961;42.058;25.586;2023-04-15T06:49:28;64161.88;;;17.13;100.00
7832;BME280;3961;42.058;25.586;2023-04-15T06:51:53;64184.66;;;17.40;100.00
7832;BME280;3961;42.058;25.586;2023-04-15T06:54:19;64232.75;;;17.79;100.00
7832;BME280;3961;42.058;25.586;2023-04-15T06:56:56;64248.47;;;17.93;100.00
7832;BME280;3961;42.058;25.586;2023-04-15T06:59:21;64234.72;;;17.84;100.00
7832;BME280;3961;42.058;25.586;2023-04-15T07:01:47;64245.56;;;17.91;100.00
7832;BME280;3961;42.058;25.586;2023-04-15T07:04:12;64240.91;;;17.87;100.00
7832;BME280;3961;42.058;25.586;2023-04-15T07:06:38;64233.94;;;17.81;100.00
7832;BME280;3961;42.058;25.586;2023-04-15T07:09:03;64269.22;;;18.09;100.00
7832;BME280;3961;42.058;25.586;2023-04-15T07:11:29;64259.88;;;18.01;100.00
7832;BME280;3961;42.058;25.586;2023-04-15T07:13:56;64273.88;;;18.13;100.00
7832;BME280;3961;42.058;25.586;2023-04-15T07:16:22;64286.91;;;18.27;100.00
7832;BME280;3961;42.058;25.586;2023-04-15T07:18:47;64331.78;;;18.66;100.00
7832;BME280;3961;42.058;25.586;2023-04-15T07:21:13;64358.56;;;18.89;100.00
7832;BME280;3961;42.058;25.586;2023-04-15T07:23:38;64354.88;;;18.84;100.00
7832;BME280;3961;42.058;25.586;2023-04-15T07:26:04;64303.56;;;18.39;100.00
7832;BME280;3961;42.058;25.586;2023-04-15T07:28:30;64322.44;;;18.58;100.00
7832;BME280;3961;42.058;25.586;2023-04-15T07:30:56;64323.59;;;18.59;100.00
7832;BME280;3961;42.058;25.586;2023-04-15T07:33:22;64305.91;;;18.41;100.00
7832;BME280;3961;42.058;25.586;2023-04-15T07:35:47;64349.63;;;18.79;100.00
7832;BME280;3961;42.058;25.586;2023-04-15T07:38:13;64384.47;;;19.14;100.00
7832;BME280;3961;42.058;25.586;2023-04-15T07:40:39;64413.25;;;19.41;100.00
7832;BME280;3961;42.058;25.586;2023-04-15T07:43:05;64451.91;;;19.70;100.00
7832;BME280;3961;42.058;25.586;2023-04-15T07:45:31;64521.69;;;20.29;100.00
7832;BME280;3961;42.058;25.586;2023-04-15T07:47:56;64543.28;;;20.48;98.47
7832;BME280;3961;42.058;25.586;2023-04-15T07:50:22;64560.81;;;20.63;98.04
7832;BME280;3961;42.058;25.586;2023-04-15T07:52:49;64481.06;;;19.96;99.07
7832;BME280;3961;42.058;25.586;2023-04-15T07:55:15;64470.31;;;19.84;100.00
7832;BME280;3961;42.058;25.586;2023-04-15T07:57:43;64440.22;;;19.60;100.00
7832;BME280;3961;42.058;25.586;2023-04-15T08:00:09;64402.66;;;19.25;100.00
7832;BME280;3961;42.058;25.586;2023-04-15T08:02:35;64486.31;;;20.00;100.00
7832;BME280;3961;42.058;25.586;2023-04-15T08:05:01;64522.13;;;20.34;99.65
7832;BME280;3961;42.058;25.586;2023-04-15T08:07:29;64586.72;;;20.88;97.66
7832;BME280;3961;42.058;25.586;2023-04-15T08:09:55;64553.44;;;20.59;97.69
7832;BME280;3961;42.058;25.586;2023-04-15T08:12:20;64562.22;;;20.66;98.95
7832;BME280;3961;42.058;25.586;2023-04-15T08:14:46;64504.63;;;20.19;98.42
7832;BME280;3961;42.058;25.586;2023-04-15T08:17:11;64496.59;;;20.07;100.00
7832;BME280;3961;42.058;25.586;2023-04-15T08:19:37;64583.94;;;20.80;95.17
7832;BME280;3961;42.058;25.586;2023-04-15T08:22:03;64658.59;;;21.50;92.39
7832;BME280;3961;42.058;25.586;2023-04-15T08:24:30;64708.28;;;21.93;91.64
7832;BME280;3961;42.058;25.586;2023-04-15T08:26:55;64699.53;;;21.86;88.15
7832;BME280;3961;42.058;25.586;2023-04-15T08:29:22;64730.09;;;22.07;89.77
7832;BME280;3961;42.058;25.586;2023-04-15T08:31:47;64707.25;;;21.88;89.73
7832;BME280;3961;42.058;25.586;2023-04-15T08:34:13;64568.06;;;20.71;96.43
7832;BME280;3961;42.058;25.586;2023-04-15T08:36:39;64561.41;;;20.63;95.39
7832;BME280;3961;42.058;25.586;2023-04-15T08:39:05;64503.22;;;20.15;99.46
7832;BME280;3961;42.058;25.586;2023-04-15T08:41:51;64440.59;;;19.58;97.03
7832;BME280;3961;42.058;25.586;2023-04-15T08:44:22;64483.63;;;20.00;95.37
7832;BME280;3961;42.058;25.586;2023-04-15T08:46:50;64464.72;;;19.82;94.62
7832;BME280;3961;42.058;25.586;2023-04-15T08:49:17;64501.84;;;20.11;93.49
7832;BME280;3961;42.058;25.586;2023-04-15T08:51:43;64517.94;;;20.23;91.99
7832;BME280;3961;42.058;25.586;2023-04-15T08:54:09;64518.75;;;20.26;96.10
7832;BME280;3961;42.058;25.586;2023-04-15T08:56:37;64498.34;;;20.08;97.78
7832;BME280;3961;42.058;25.586;2023-04-15T08:59:03;64514.09;;;20.22;100.00
7832;BME280;3961;42.058;25.586;2023-04-15T09:01:31;64489.59;;;20.01;97.51
7832;BME280;3961;42.058;25.586;2023-04-15T09:03:56;64403.69;;;19.31;100.00
7832;BME280;3961;42.058;25.586;2023-04-15T09:06:23;64349.84;;;18.82;100.00
7832;BME280;3961;42.058;25.586;2023-04-15T09:08:50;64400.31;;;19.23;100.00
7832;BME280;3961;42.058;25.586;2023-04-15T09:11:16;64413.75;;;19.35;100.00
7832;BME280;3961;42.058;25.586;2023-04-15T09:13:43;64448.41;;;19.67;100.00
7832;BME280;3961;42.058;25.586;2023-04-15T09:16:08;64517.00;;;20.25;100.00
7832;BME280;3961;42.058;25.586;2023-04-15T09:18:35;64506.50;;;20.16;98.32
7832;BME280;3961;42.058;25.586;2023-04-15T09:23:31;64599.59;;;20.99;93.07
7832;BME280;3961;42.058;25.586;2023-04-15T09:25:58;64657.22;;;21.46;94.38
7832;BME280;3961;42.058;25.586;2023-04-15T09:28:24;64639.69;;;21.31;94.42
7832;BME280;3961;42.058;25.586;2023-04-15T09:30:59;64572.88;;;20.71;96.87
7832;BME280;3961;42.058;25.586;2023-04-15T09:33:26;64499.28;;;20.07;96.71
7832;BME280;3961;42.058;25.586;2023-04-15T09:35:59;64505.13;;;20.12;95.70
7832;BME280;3961;42.058;25.586;2023-04-15T09:38:25;64473.00;;;19.84;94.40
7832;BME280;3961;42.058;25.586;2023-04-15T09:40:51;64581.63;;;20.78;94.96
7832;BME280;3961;42.058;25.586;2023-04-15T09:43:17;64602.06;;;20.96;93.15
7832;BME280;3961;42.058;25.586;2023-04-15T09:45:50;64519.56;;;20.29;97.34
7832;BME280;3961;42.058;25.586;2023-04-15T09:48:24;64454.81;;;19.73;99.02
7832;BME280;3961;42.058;25.586;2023-04-15T09:50:51;64449.34;;;19.66;100.00
7832;BME280;3961;42.058;25.586;2023-04-15T09:53:23;64494.50;;;20.07;100.00
7832;BME280;3961;42.058;25.586;2023-04-15T09:55:56;64503.03;;;20.12;98.66
7832;BME280;3961;42.058;25.586;2023-04-15T10:00:50;64515.63;;;20.21;95.88
7832;BME280;3961;42.058;25.586;2023-04-15T10:03:25;64470.91;;;19.85;96.44
7832;BME280;3961;42.058;25.586;2023-04-15T10:05:53;64463.94;;;19.78;98.50
7832;BME280;3961;42.058;25.586;2023-04-15T10:08:22;64504.19;;;20.13;98.62
7832;BME280;3961;42.058;25.586;2023-04-15T10:10:52;64475.94;;;19.87;97.96
7832;BME280;3961;42.058;25.586;2023-04-15T10:13:23;64450.50;;;19.67;99.65
7832;BME280;3961;42.058;25.586;2023-04-15T10:15:55;64498.94;;;20.09;99.35
7832;BME280;3961;42.058;25.586;2023-04-15T10:18:24;64481.06;;;19.96;95.20
7832;BME280;3961;42.058;25.586;2023-04-15T10:20:51;64496.38;;;20.04;95.90
7832;BME280;3961;42.058;25.586;2023-04-15T10:23:17;64462.59;;;19.82;98.58
7832;BME280;3961;42.058;25.586;2023-04-15T10:25:45;64476.75;;;19.90;99.76
7832;BME280;3961;42.058;25.586;2023-04-15T10:28:11;64484.91;;;19.97;95.93
7832;BME280;3961;42.058;25.586;2023-04-15T10:30:37;64479.09;;;19.92;95.47
7832;BME280;3961;42.058;25.586;2023-04-15T10:33:04;64463.41;;;19.85;95.81
7832;BME280;3961;42.058;25.586;2023-04-15T10:35:31;64472.66;;;19.86;94.87
7832;BME280;3961;42.058;25.586;2023-04-15T10:37:57;64491.13;;;20.00;96.58
7832;BME280;3961;42.058;25.586;2023-04-15T10:40:28;64479.66;;;19.92;96.23
7832;BME280;3961;42.058;25.586;2023-04-15T10:43:01;64486.66;;;19.98;96.18
7832;BME280;3961;42.058;25.586;2023-04-15T10:45:31;64445.47;;;19.65;95.47
7832;BME280;3961;42.058;25.586;2023-04-15T10:48:00;64470.69;;;19.82;94.18
7832;BME280;3961;42.058;25.586;2023-04-15T10:50:27;64470.91;;;19.85;93.78
7832;BME280;3961;42.058;25.586;2023-04-15T10:52:55;64519.94;;;20.27;92.88
7832;BME280;3961;42.058;25.586;2023-04-15T10:55:31;64501.84;;;20.11;88.90
7832;BME280;3961;42.058;25.586;2023-04-15T10:57:59;64511.16;;;20.20;90.88
7832;BME280;3961;42.058;25.586;2023-04-15T11:00:28;64539.00;;;20.41;90.33
7832;BME280;3961;42.058;25.586;2023-04-15T11:02:59;64594.09;;;20.92;89.19
7832;BME280;3961;42.058;25.586;2023-04-15T11:08:08;64628.00;;;21.21;91.23
7832;BME280;3961;42.058;25.586;2023-04-15T11:13:13;64559.28;;;20.64;90.77
7832;BME280;3961;42.058;25.586;2023-04-15T11:15:44;64493.69;;;20.04;92.97
7832;BME280;3961;42.058;25.586;2023-04-15T11:20:36;64613.97;;;21.09;88.68
7832;BME280;3961;42.058;25.586;2023-04-15T11:23:03;64632.69;;;21.25;90.72
7832;BME280;3961;42.058;25.586;2023-04-15T11:25:30;64597.03;;;20.94;90.72
7832;BME280;3961;42.058;25.586;2023-04-15T11:27:58;64598.41;;;20.98;89.50
7832;BME280;3961;42.058;25.586;2023-04-15T11:30:25;64580.66;;;20.80;91.30
7832;BME280;3961;42.058;25.586;2023-04-15T11:33:02;64577.19;;;20.77;90.88
7832;BME280;3961;42.058;25.586;2023-04-15T11:35:28;64562.56;;;20.64;92.29
7832;BME280;3961;42.058;25.586;2023-04-15T11:37:54;64566.88;;;20.70;92.91
7832;BME280;3961;42.058;25.586;2023-04-15T11:40:28;64559.06;;;20.61;92.54
7832;BME280;3961;42.058;25.586;2023-04-15T11:43:15;64568.06;;;20.71;91.89
7832;BME280;3961;42.058;25.586;2023-04-15T11:48:21;64605.78;;;21.02;91.18
7832;BME280;3961;42.058;25.586;2023-04-15T11:50:58;64571.09;;;20.69;91.77
7832;BME280;3961;42.058;25.586;2023-04-15T11:53:36;64610.69;;;21.08;90.95
7832;BME280;3961;42.058;25.586;2023-04-15T11:56:02;64591.75;;;20.90;91.33
7832;BME280;3961;42.058;25.586;2023-04-15T11:58:28;64580.31;;;20.82;91.39
7832;BME280;3961;42.058;25.586;2023-04-15T12:00:58;64623.88;;;21.18;92.11
7832;BME280;3961;42.058;25.586;2023-04-15T12:03:36;64615.50;;;21.08;92.06
7832;BME280;3961;42.058;25.586;2023-04-15T12:11:33;64659.91;;;21.46;90.40
7832;BME280;3961;42.058;25.586;2023-04-15T12:16:28;64671.59;;;21.57;91.17
7832;BME280;3961;42.058;25.586;2023-04-15T12:18:56;64635.03;;;21.27;89.52
7832;BME280;3961;42.058;25.586;2023-04-15T12:21:25;64649.47;;;21.44;88.46
7832;BME280;3961;42.058;25.586;2023-04-15T12:23:52;64662.47;;;21.51;89.66
7832;BME280;3961;42.058;25.586;2023-04-15T12:26:29;64694.63;;;21.79;89.90
7832;BME280;3961;42.058;25.586;2023-04-15T12:28:55;64678.13;;;21.69;88.79
7832;BME280;3961;42.058;25.586;2023-04-15T12:31:24;64633.25;;;21.26;90.90
7832;BME280;3961;42.058;25.586;2023-04-15T12:33:50;64614.34;;;21.07;89.63
7832;BME280;3961;42.058;25.586;2023-04-15T12:36:15;64630.34;;;21.23;86.80
7832;BME280;3961;42.058;25.586;2023-04-15T12:38:41;64616.31;;;21.11;85.51
7832;BME280;3961;42.058;25.586;2023-04-15T12:41:06;64644.00;;;21.37;79.11
7832;BME280;3961;42.058;25.586;2023-04-15T12:43:32;64693.09;;;21.80;76.86
7832;BME280;3961;42.058;25.586;2023-04-15T12:45:57;64687.63;;;21.73;73.45
7832;BME280;3961;42.058;25.586;2023-04-15T12:48:23;64750.66;;;22.32;72.46
7832;BME280;3961;42.058;25.586;2023-04-15T12:50:48;64757.44;;;22.36;62.67
7832;BME280;3961;42.058;25.586;2023-04-15T12:53:14;64804.41;;;22.72;62.40
7832;BME280;3961;42.058;25.586;2023-04-15T12:55:39;64783.19;;;22.58;62.80
7832;BME280;3961;42.058;25.586;2023-04-15T12:58:05;64782.38;;;22.55;61.30
7832;BME280;3961;42.058;25.586;2023-04-15T13:00:33;64780.38;;;22.51;61.73
7832;BME280;3961;42.058;25.586;2023-04-15T13:02:58;64732.66;;;22.12;62.03
7832;BME280;3961;42.058;25.586;2023-04-15T13:05:24;64800.28;;;22.68;61.71
7832;BME280;3961;42.058;25.586;2023-04-15T13:07:49;64831.78;;;23.00;58.49
7832;BME280;3961;42.058;25.586;2023-04-15T13:10:15;64887.88;;;23.42;45.30
7832;BME280;3961;42.058;25.586;2023-04-15T13:12:41;64908.06;;;23.62;44.33
7832;BME280;3961;42.058;25.586;2023-04-15T13:15:07;64942.84;;;23.94;42.75
7832;BME280;3961;42.058;25.586;2023-04-15T13:17:35;64940.47;;;23.92;38.72
7832;BME280;3961;42.058;25.586;2023-04-15T13:20:01;64963.47;;;24.07;38.29
7832;BME280;3961;42.058;25.586;2023-04-15T13:22:26;64994.78;;;24.37;37.05
7832;BME280;3961;42.058;25.586;2023-04-15T13:24:52;65008.47;;;24.51;38.00